Time;durP1;ratioP1;P1;durP2;ratioP2;P2;SDS_P1;SDS_P2;PMS_P1;PMS_P2;Temp;Humidity;BMP_temperature;BMP_pressure;BME280_temperature;BME280_humidity;BME280_pressure;Samples;Min_cycle;Max_cycle;Signal;HPM_P1;HPM_P2
2023/01/29 00:01:50;;;;;;;14.17;12.00;;;-1.30;99.90;;;;;;5049901;28;20465;-46
2023/01/29 00:04:17;;;;;;;19.07;12.93;;;-1.40;99.90;;;;;;5048864;28;20533;-48
2023/01/29 00:06:45;;;;;;;20.30;11.00;;;-1.50;99.90;;;;;;5049855;28;20564;-46
2023/01/29 00:09:13;;;;;;;19.07;10.90;;;-1.60;99.90;;;;;;5047385;28;21033;-47
2023/01/29 00:11:40;;;;;;;20.47;13.27;;;-1.60;99.90;;;;;;5050131;28;20450;-46
2023/01/29 00:14:07;;;;;;;22.00;11.17;;;-1.70;99.90;;;;;;5049201;28;20558;-46
2023/01/29 00:16:34;;;;;;;17.13;11.50;;;-1.70;99.90;;;;;;5049694;28;20561;-46
2023/01/29 00:19:01;;;;;;;15.90;10.80;;;-1.60;99.90;;;;;;5050164;28;20521;-46
2023/01/29 00:21:30;;;;;;;15.50;10.07;;;-1.30;99.90;;;;;;5048459;28;20446;-47
2023/01/29 00:23:59;;;;;;;14.80;10.30;;;-1.30;99.90;;;;;;5049126;28;20537;-46
2023/01/29 00:26:27;;;;;;;15.30;10.17;;;-1.20;99.90;;;;;;5049430;28;20553;-47
2023/01/29 00:28:53;;;;;;;16.13;11.37;;;-1.10;99.90;;;;;;5049369;28;20533;-46
2023/01/29 00:31:23;;;;;;;16.13;11.50;;;-1.10;99.90;;;;;;5049073;28;21041;-47
2023/01/29 00:33:50;;;;;;;14.47;10.10;;;-1.10;99.90;;;;;;5049333;28;20537;-47
2023/01/29 00:36:18;;;;;;;17.23;10.40;;;-1.60;99.90;;;;;;5048034;28;20560;-46
2023/01/29 00:38:53;;;;;;;15.37;10.27;;;-2.00;99.90;;;;;;5048283;28;20532;-47
2023/01/29 00:46:51;;;;;;;9.97;6.60;;;-2.20;99.90;;;;;;5048255;28;20488;-47
2023/01/29 00:49:18;;;;;;;9.20;5.90;;;-2.00;99.90;;;;;;5047701;28;21010;-46
2023/01/29 00:52:22;;;;;;;7.70;6.70;;;-2.00;99.90;;;;;;5047935;28;20536;-49
2023/01/29 00:54:33;;;;;;;10.30;6.67;;;-2.00;99.90;;;;;;5048012;28;20449;-46
2023/01/29 00:57:02;;;;;;;10.80;6.40;;;-1.80;99.90;;;;;;5049623;28;20587;-49
2023/01/29 00:59:28;;;;;;;12.80;7.70;;;-1.70;99.90;;;;;;5048916;28;20548;-47
2023/01/29 01:04:40;;;;;;;9.00;5.50;;;-1.80;99.90;;;;;;5048715;28;20445;-49
2023/01/29 01:07:07;;;;;;;9.80;6.70;;;-2.20;99.90;;;;;;5048271;28;20553;-46
2023/01/29 01:12:21;;;;;;;11.03;7.40;;;-2.10;99.90;;;;;;5047752;28;20421;-49
2023/01/29 01:14:48;;;;;;;5.73;3.97;;;-2.00;99.90;;;;;;5047463;28;21005;-46
2023/01/29 01:17:15;;;;;;;7.00;4.23;;;-2.20;99.90;;;;;;5047167;28;21070;-43
2023/01/29 01:19:42;;;;;;;6.37;3.40;;;-2.10;99.90;;;;;;5049664;28;20825;-46
2023/01/29 01:22:09;;;;;;;6.33;3.60;;;-2.50;99.90;;;;;;5051344;28;20529;-47
2023/01/29 01:24:36;;;;;;;4.17;3.30;;;-2.50;99.90;;;;;;5051240;28;20459;-46
2023/01/29 01:27:03;;;;;;;7.70;3.80;;;-2.20;99.90;;;;;;5052906;28;20506;-46
2023/01/29 01:29:32;;;;;;;4.80;3.77;;;-2.00;99.90;;;;;;5052992;28;20532;-46
2023/01/29 01:31:59;;;;;;;4.07;3.27;;;-1.80;99.90;;;;;;5052711;28;20445;-45
2023/01/29 01:34:26;;;;;;;4.63;3.30;;;-1.80;99.90;;;;;;5051978;28;20917;-48
2023/01/29 01:36:54;;;;;;;4.27;3.80;;;-1.80;99.90;;;;;;5052777;28;20854;-46
2023/01/29 01:39:21;;;;;;;3.70;3.40;;;-1.80;99.90;;;;;;5052258;28;20441;-47
2023/01/29 01:41:48;;;;;;;3.90;3.27;;;-2.00;99.90;;;;;;5049031;28;20533;-49
2023/01/29 01:44:53;;;;;;;4.90;3.23;;;-2.00;99.90;;;;;;5050050;28;20536;-45
2023/01/29 01:47:24;;;;;;;3.63;2.93;;;-2.00;99.90;;;;;;5050560;28;20461;-46
2023/01/29 01:49:52;;;;;;;6.30;3.90;;;-2.30;99.90;;;;;;5051174;28;20568;-49
2023/01/29 01:52:20;;;;;;;5.83;3.73;;;-2.60;99.90;;;;;;5049884;28;20603;-47
2023/01/29 01:54:48;;;;;;;4.17;3.60;;;-2.70;99.90;;;;;;5050957;28;20978;-46
2023/01/29 01:57:23;;;;;;;4.17;3.37;;;-2.70;99.90;;;;;;5051818;28;20504;-42
2023/01/29 01:59:55;;;;;;;4.57;3.20;;;-2.70;99.90;;;;;;5052907;28;20550;-47
2023/01/29 02:10:42;;;;;;;3.57;2.80;;;-2.40;99.90;;;;;;5043799;28;21012;-45
2023/01/29 02:13:09;;;;;;;4.07;3.77;;;-2.60;99.90;;;;;;5050714;28;20436;-47
2023/01/29 02:15:40;;;;;;;4.40;3.10;;;-2.70;99.90;;;;;;5050180;28;20559;-45
2023/01/29 02:18:07;;;;;;;4.33;3.50;;;-2.90;99.90;;;;;;5051441;28;20525;-46
2023/01/29 02:20:35;;;;;;;6.93;3.70;;;-3.00;99.90;;;;;;5051572;28;20515;-48
2023/01/29 02:23:38;;;;;;;4.23;3.80;;;-3.00;99.90;;;;;;5051392;28;21012;-46
2023/01/29 02:26:48;;;;;;;3.33;2.90;;;-2.70;99.90;;;;;;5031042;28;20568;-47
2023/01/29 02:29:26;;;;;;;3.97;3.57;;;-2.70;99.90;;;;;;5044997;28;20843;-44
2023/01/29 02:32:05;;;;;;;7.63;4.03;;;-3.40;99.90;;;;;;5050969;28;20447;-46
2023/01/29 02:37:34;;;;;;;5.23;3.77;;;-3.80;99.90;;;;;;5043360;28;20482;-48
2023/01/29 02:40:09;;;;;;;5.50;4.20;;;-3.60;99.90;;;;;;5041367;28;20478;-46
2023/01/29 02:42:42;;;;;;;5.70;3.70;;;-3.50;99.90;;;;;;5051369;28;21012;-46
2023/01/29 02:45:15;;;;;;;6.97;4.50;;;-3.40;99.90;;;;;;5051122;28;20500;-46
2023/01/29 02:47:47;;;;;;;5.53;4.17;;;-3.30;99.90;;;;;;5051668;28;20915;-46
2023/01/29 02:50:19;;;;;;;5.77;4.77;;;-3.30;99.90;;;;;;5050948;28;21018;-43
2023/01/29 02:52:55;;;;;;;5.03;3.53;;;-3.50;99.90;;;;;;5051307;28;20442;-46
2023/01/29 02:55:28;;;;;;;5.77;3.33;;;-3.50;99.90;;;;;;5050942;28;20483;-46
2023/01/29 02:58:00;;;;;;;7.13;4.00;;;-3.60;99.90;;;;;;5049869;28;20566;-47
2023/01/29 03:00:34;;;;;;;4.20;3.40;;;-3.40;99.90;;;;;;5048945;28;20442;-46
2023/01/29 03:03:07;;;;;;;4.90;3.27;;;-3.00;99.90;;;;;;5049399;28;21013;-47
2023/01/29 03:05:42;;;;;;;6.17;3.40;;;-3.20;99.90;;;;;;5049232;28;20536;-46
2023/01/29 03:08:15;;;;;;;4.27;3.30;;;-3.50;99.90;;;;;;5048156;28;20452;-47
2023/01/29 03:10:48;;;;;;;4.53;2.90;;;-3.70;99.90;;;;;;5049405;28;20452;-48
2023/01/29 03:13:19;;;;;;;4.40;3.27;;;-3.70;99.90;;;;;;5049946;28;20535;-44
2023/01/29 03:16:00;;;;;;;5.70;3.60;;;-3.90;99.90;;;;;;5051210;28;20500;-46
2023/01/29 03:18:31;;;;;;;5.17;3.70;;;-3.60;99.90;;;;;;5050622;28;20527;-46
2023/01/29 03:21:03;;;;;;;4.03;2.40;;;-3.50;99.90;;;;;;5050427;28;20548;-46
2023/01/29 03:32:04;;;;;;;4.83;2.73;;;-3.20;99.90;;;;;;5049322;28;21134;-48
2023/01/29 03:34:37;;;;;;;4.40;2.83;;;-3.30;99.90;;;;;;5048340;28;20454;-47
2023/01/29 03:37:12;;;;;;;4.47;3.00;;;-3.50;99.90;;;;;;5049158;28;20516;-46
2023/01/29 03:39:39;;;;;;;5.07;3.10;;;-3.70;99.90;;;;;;5050096;28;20447;-46
2023/01/29 03:42:16;;;;;;;4.10;3.13;;;-3.70;99.90;;;;;;5050587;28;20530;-46
2023/01/29 03:44:55;;;;;;;2.53;2.10;;;-3.90;99.90;;;;;;5049941;28;20524;-46
2023/01/29 03:47:33;;;;;;;4.20;2.60;;;-4.20;99.90;;;;;;5050270;28;20475;-49
2023/01/29 03:50:06;;;;;;;4.50;2.53;;;-4.00;99.90;;;;;;5049891;28;20491;-47
2023/01/29 03:52:42;;;;;;;3.25;2.80;;;-3.90;99.90;;;;;;5048685;28;20532;-47
2023/01/29 03:55:15;;;;;;;3.77;2.60;;;-3.60;99.90;;;;;;5048317;28;20290;-47
2023/01/29 03:57:45;;;;;;;4.03;3.17;;;-3.60;99.90;;;;;;5049338;28;20839;-47
2023/01/29 04:00:16;;;;;;;7.13;3.83;;;-3.50;99.90;;;;;;5048635;28;20526;-48
2023/01/29 04:02:49;;;;;;;3.40;2.50;;;-3.40;99.90;;;;;;5048170;28;20460;-47
2023/01/29 04:05:20;;;;;;;4.03;3.00;;;-3.40;99.90;;;;;;5048107;28;20535;-46
2023/01/29 04:07:51;;;;;;;4.00;3.13;;;-3.60;99.90;;;;;;5048813;28;20546;-47
2023/01/29 04:10:22;;;;;;;3.90;2.53;;;-3.90;99.90;;;;;;5049489;28;20530;-46
2023/01/29 04:12:55;;;;;;;4.00;2.53;;;-4.30;99.90;;;;;;5050215;28;20539;-51
2023/01/29 04:15:24;;;;;;;3.97;3.03;;;-4.50;99.90;;;;;;5047913;28;20538;-46
2023/01/29 04:17:55;;;;;;;4.13;3.73;;;-4.30;99.90;;;;;;5048706;28;20616;-47
2023/01/29 04:20:22;;;;;;;4.30;3.27;;;-4.40;99.90;;;;;;5047789;28;20903;-50
2023/01/29 04:22:51;;;;;;;3.37;3.07;;;-4.40;99.90;;;;;;5048113;28;20783;-48
2023/01/29 04:25:25;;;;;;;4.43;3.00;;;-4.40;99.90;;;;;;5048076;28;21018;-48
2023/01/29 04:28:03;;;;;;;4.20;3.57;;;-4.40;99.90;;;;;;5048828;28;20904;-46
2023/01/29 04:30:41;;;;;;;5.00;3.00;;;-4.30;99.90;;;;;;5049439;28;20529;-46
2023/01/29 04:33:21;;;;;;;4.10;3.30;;;-4.60;99.90;;;;;;5048323;28;20531;-47
2023/01/29 04:36:05;;;;;;;5.43;3.53;;;-5.20;99.90;;;;;;5048020;28;20504;-46
2023/01/29 04:38:44;;;;;;;4.30;3.50;;;-5.10;99.90;;;;;;5048304;28;20527;-46
2023/01/29 04:41:19;;;;;;;4.53;3.97;;;-4.80;99.90;;;;;;5048435;28;20539;-48
2023/01/29 04:43:58;;;;;;;5.90;4.68;;;-4.90;99.90;;;;;;5047945;28;20529;-46
2023/01/29 04:46:31;;;;;;;7.13;4.03;;;-4.80;99.90;;;;;;5046956;28;20330;-47
2023/01/29 04:49:12;;;;;;;7.35;3.83;;;-4.50;99.90;;;;;;5048393;28;20529;-47
2023/01/29 04:51:48;;;;;;;5.27;3.80;;;-4.40;99.90;;;;;;5049413;28;20681;-45
2023/01/29 04:54:25;;;;;;;4.87;4.20;;;-4.50;99.90;;;;;;5049782;28;20443;-44
2023/01/29 04:57:01;;;;;;;5.63;4.00;;;-4.40;99.90;;;;;;5054923;28;20963;-48
2023/01/29 04:59:33;;;;;;;4.60;3.93;;;-4.20;99.90;;;;;;5054381;28;20528;-46
2023/01/29 05:02:02;;;;;;;3.73;3.10;;;-4.10;99.90;;;;;;5050606;28;21045;-47
2023/01/29 05:04:33;;;;;;;4.80;3.00;;;-4.10;99.90;;;;;;5053136;28;20448;-50
2023/01/29 05:07:04;;;;;;;4.70;3.22;;;-4.00;99.90;;;;;;5034486;28;20557;-45
2023/01/29 05:09:32;;;;;;;3.60;2.90;;;-4.00;99.90;;;;;;5049172;28;20221;-47
2023/01/29 05:12:02;;;;;;;4.10;2.50;;;-4.00;99.90;;;;;;5056231;28;20533;-48
2023/01/29 05:14:32;;;;;;;5.20;3.07;;;-4.00;99.90;;;;;;5054782;28;20534;-46
2023/01/29 05:17:02;;;;;;;3.40;3.00;;;-4.10;99.90;;;;;;5055790;28;21046;-46
2023/01/29 05:19:30;;;;;;;5.47;3.33;;;-4.00;99.90;;;;;;5055068;28;20888;-46
2023/01/29 05:21:58;;;;;;;4.07;2.87;;;-4.20;99.90;;;;;;5034426;28;20894;-46
2023/01/29 05:24:26;;;;;;;3.57;3.00;;;-4.20;99.90;;;;;;5033673;28;20567;-46
2023/01/29 05:29:40;;;;;;;5.30;3.93;;;-4.40;99.90;;;;;;5054493;28;20900;-46
2023/01/29 05:32:07;;;;;;;4.23;3.00;;;-4.30;99.90;;;;;;5054453;28;20525;-47
2023/01/29 05:34:35;;;;;;;4.43;3.03;;;-4.20;99.90;;;;;;5052117;28;20966;-45
2023/01/29 05:37:02;;;;;;;4.30;2.93;;;-4.10;99.90;;;;;;5055549;28;20547;-45
2023/01/29 05:39:29;;;;;;;6.67;4.03;;;-4.00;99.90;;;;;;5054666;28;20446;-47
2023/01/29 05:41:56;;;;;;;5.57;3.80;;;-3.80;99.90;;;;;;5054674;28;20539;-47
2023/01/29 05:44:23;;;;;;;3.33;2.83;;;-3.80;99.90;;;;;;5053394;28;20526;-46
2023/01/29 05:46:50;;;;;;;5.70;3.33;;;-4.10;99.90;;;;;;5054668;28;20550;-46
2023/01/29 05:49:19;;;;;;;2.57;2.37;;;-4.30;99.90;;;;;;5052982;28;20525;-46
2023/01/29 05:51:47;;;;;;;2.93;2.60;;;-4.60;99.90;;;;;;5054747;28;20493;-49
2023/01/29 05:54:14;;;;;;;4.37;2.90;;;-4.50;99.90;;;;;;5053975;28;20534;-44
2023/01/29 05:56:41;;;;;;;6.27;3.23;;;-4.50;99.90;;;;;;5055574;28;21091;-46
2023/01/29 05:59:08;;;;;;;3.90;3.13;;;-4.60;99.90;;;;;;5054982;28;20562;-46
2023/01/29 06:01:35;;;;;;;6.00;3.93;;;-4.70;99.90;;;;;;5034622;28;21028;-46
2023/01/29 06:04:02;;;;;;;4.97;4.23;;;-4.30;99.90;;;;;;5036035;28;21015;-46
2023/01/29 06:06:28;;;;;;;4.67;3.50;;;-4.00;99.90;;;;;;5052601;28;20559;-48
2023/01/29 06:08:57;;;;;;;4.10;3.17;;;-4.20;99.90;;;;;;5051304;28;20534;-45
2023/01/29 06:11:24;;;;;;;3.53;3.10;;;-4.00;99.90;;;;;;5052095;28;21009;-46
2023/01/29 06:13:51;;;;;;;4.60;2.90;;;-4.00;99.90;;;;;;5051549;28;20793;-48
2023/01/29 06:16:18;;;;;;;5.63;3.60;;;-4.60;99.90;;;;;;5052172;28;20552;-48
2023/01/29 06:18:45;;;;;;;5.07;3.60;;;-4.80;99.90;;;;;;5052564;28;20848;-46
2023/01/29 06:21:13;;;;;;;3.25;2.40;;;-4.50;99.90;;;;;;5051231;28;20545;-47
2023/01/29 06:23:41;;;;;;;3.60;3.30;;;-4.50;99.90;;;;;;5051856;28;20276;-46
2023/01/29 06:26:12;;;;;;;3.80;3.20;;;-4.70;99.90;;;;;;5051907;28;20658;-46
2023/01/29 06:28:39;;;;;;;4.07;3.20;;;-4.40;99.90;;;;;;5052205;28;20527;-46
2023/01/29 06:31:07;;;;;;;3.37;2.80;;;-4.10;99.90;;;;;;5051905;28;20539;-49
2023/01/29 06:33:35;;;;;;;4.82;3.25;;;-4.30;99.90;;;;;;5050460;28;20550;-46
2023/01/29 06:36:04;;;;;;;4.47;3.10;;;-4.20;99.90;;;;;;5052040;28;20309;-46
2023/01/29 06:38:31;;;;;;;3.20;2.90;;;-4.30;99.90;;;;;;5051182;28;20571;-47
2023/01/29 06:40:58;;;;;;;3.77;2.63;;;-5.10;99.90;;;;;;5051821;28;20539;-46
2023/01/29 06:43:26;;;;;;;6.40;5.03;;;-5.10;99.90;;;;;;5049728;28;20533;-48
2023/01/29 06:45:55;;;;;;;4.43;4.03;;;-5.20;99.90;;;;;;5049802;28;20558;-48
2023/01/29 06:48:22;;;;;;;6.07;4.10;;;-5.40;99.90;;;;;;5049781;28;20529;-46
2023/01/29 06:50:50;;;;;;;3.63;3.33;;;-5.30;99.90;;;;;;5050290;28;20522;-47
2023/01/29 06:53:18;;;;;;;5.45;4.18;;;-5.30;99.90;;;;;;5049034;28;20532;-46
2023/01/29 06:55:51;;;;;;;4.80;3.30;;;-5.50;99.90;;;;;;5050177;28;20593;-46
2023/01/29 06:58:18;;;;;;;5.37;3.63;;;-5.50;99.90;;;;;;5050254;28;20565;-46
2023/01/29 07:00:47;;;;;;;4.97;2.95;;;-5.30;99.90;;;;;;5051445;28;21191;-46
2023/01/29 07:03:14;;;;;;;5.83;4.30;;;-5.10;99.90;;;;;;5049608;28;20286;-44
2023/01/29 07:05:41;;;;;;;4.03;3.50;;;-5.00;99.90;;;;;;5051304;28;20495;-46
2023/01/29 07:08:08;;;;;;;3.93;3.50;;;-5.00;99.90;;;;;;5049950;28;20860;-46
2023/01/29 07:10:35;;;;;;;6.50;3.70;;;-5.00;99.90;;;;;;5042111;28;20446;-46
2023/01/29 07:13:02;;;;;;;4.53;3.10;;;-4.70;99.90;;;;;;5043564;28;20288;-48
2023/01/29 07:15:29;;;;;;;4.53;3.13;;;-4.60;99.90;;;;;;5043417;28;21010;-47
2023/01/29 07:17:58;;;;;;;5.70;4.30;;;-4.40;99.90;;;;;;5040770;28;20316;-46
2023/01/29 07:20:26;;;;;;;4.83;4.00;;;-4.20;99.90;;;;;;5048949;28;20538;-49
2023/01/29 07:22:53;;;;;;;5.00;3.40;;;-4.70;99.90;;;;;;5048716;28;20448;-45
2023/01/29 07:25:20;;;;;;;4.17;3.40;;;-5.00;99.90;;;;;;5046951;28;20454;-47
2023/01/29 07:27:48;;;;;;;9.32;4.60;;;-5.10;99.90;;;;;;5045372;28;20529;-47
2023/01/29 07:30:16;;;;;;;4.45;3.83;;;-4.90;99.90;;;;;;5046357;28;20835;-45
2023/01/29 07:32:43;;;;;;;6.25;3.45;;;-4.90;99.90;;;;;;5047916;28;20564;-45
2023/01/29 07:35:11;;;;;;;7.65;5.38;;;-4.80;99.90;;;;;;5048995;28;20282;-47
2023/01/29 07:37:38;;;;;;;9.23;5.70;;;-4.60;99.90;;;;;;5047864;28;20310;-47
2023/01/29 07:40:10;;;;;;;9.05;5.65;;;-4.40;99.90;;;;;;5046125;28;20545;-46
2023/01/29 07:42:37;;;;;;;10.27;7.00;;;-4.50;99.90;;;;;;5048212;28;20203;-46
2023/01/29 07:45:05;;;;;;;6.43;4.97;;;-4.40;99.90;;;;;;5047901;28;20887;-46
2023/01/29 07:47:32;;;;;;;7.03;4.73;;;-4.60;99.90;;;;;;5049025;28;20458;-47
2023/01/29 07:49:59;;;;;;;7.47;4.50;;;-4.90;99.90;;;;;;5049415;28;20520;-48
2023/01/29 07:52:29;;;;;;;8.20;4.73;;;-4.70;99.90;;;;;;5049191;28;20522;-46
2023/01/29 07:54:55;;;;;;;5.15;3.10;;;-4.60;99.90;;;;;;5048142;28;20529;-47
2023/01/29 07:57:23;;;;;;;4.07;3.57;;;-4.90;99.90;;;;;;5044197;28;20232;-47
2023/01/29 07:59:50;;;;;;;3.77;2.70;;;-5.20;99.90;;;;;;5046491;28;21317;-46
2023/01/29 08:02:17;;;;;;;4.53;3.97;;;-5.20;99.90;;;;;;5048937;28;20530;-47
2023/01/29 08:04:43;;;;;;;4.60;3.40;;;-5.10;99.90;;;;;;5048707;28;20528;-46
2023/01/29 08:07:10;;;;;;;10.77;6.47;;;-5.00;99.90;;;;;;5046970;28;20556;-47
2023/01/29 08:09:38;;;;;;;10.63;6.30;;;-4.70;99.90;;;;;;5049132;28;20514;-46
2023/01/29 08:12:06;;;;;;;8.80;7.28;;;-4.80;99.90;;;;;;5047655;28;20500;-46
2023/01/29 08:14:32;;;;;;;21.20;15.43;;;-4.80;99.90;;;;;;5047918;28;20274;-49
2023/01/29 08:16:59;;;;;;;13.90;9.03;;;-4.80;99.90;;;;;;5045924;28;20969;-47
2023/01/29 08:19:26;;;;;;;18.30;12.00;;;-4.80;99.90;;;;;;5046063;28;20564;-47
2023/01/29 08:21:53;;;;;;;21.10;15.13;;;-5.10;99.90;;;;;;5044517;28;20386;-47
2023/01/29 08:24:20;;;;;;;19.43;15.40;;;-5.40;99.90;;;;;;5046151;28;20956;-48
2023/01/29 08:26:48;;;;;;;13.35;9.85;;;-5.40;99.90;;;;;;5045464;28;20581;-48
2023/01/29 08:29:15;;;;;;;11.10;7.40;;;-5.30;99.90;;;;;;5045335;28;20282;-49
2023/01/29 08:31:42;;;;;;;6.80;5.23;;;-4.90;99.90;;;;;;5048094;28;20289;-46
2023/01/29 08:34:09;;;;;;;6.10;5.23;;;-4.70;99.90;;;;;;5043841;28;20534;-46
2023/01/29 08:36:36;;;;;;;4.77;4.20;;;-4.60;99.90;;;;;;5047341;28;20909;-48
2023/01/29 08:39:03;;;;;;;11.23;8.53;;;-4.30;99.90;;;;;;5048420;28;20600;-48
2023/01/29 08:41:30;;;;;;;12.20;7.30;;;-4.50;99.90;;;;;;5048158;28;20537;-49
2023/01/29 08:44:00;;;;;;;11.73;7.87;;;-4.90;99.90;;;;;;5046139;28;20538;-49
2023/01/29 08:46:27;;;;;;;10.73;8.50;;;-5.20;99.90;;;;;;5043584;28;20927;-47
2023/01/29 08:48:54;;;;;;;5.45;4.38;;;-5.60;99.90;;;;;;5047958;28;20536;-46
2023/01/29 08:51:21;;;;;;;9.77;6.10;;;-5.40;99.90;;;;;;5046609;28;20268;-48
2023/01/29 08:53:48;;;;;;;6.80;6.10;;;-5.50;99.90;;;;;;5046191;28;20910;-47
2023/01/29 08:56:16;;;;;;;5.93;4.47;;;-5.40;99.90;;;;;;5045690;28;20926;-46
2023/01/29 08:58:43;;;;;;;6.77;5.40;;;-5.40;99.90;;;;;;5046599;28;20483;-46
2023/01/29 09:01:13;;;;;;;6.93;6.20;;;-5.30;99.90;;;;;;5043214;28;21002;-48
2023/01/29 09:03:42;;;;;;;8.10;6.23;;;-5.30;99.90;;;;;;5047777;28;20536;-47
2023/01/29 09:06:09;;;;;;;5.57;4.73;;;-5.20;99.90;;;;;;5045149;28;20474;-46
2023/01/29 09:08:36;;;;;;;7.93;5.38;;;-5.40;99.90;;;;;;5046970;28;20434;-46
2023/01/29 09:11:03;;;;;;;7.93;7.03;;;-5.50;99.90;;;;;;5047901;28;20312;-49
2023/01/29 09:13:30;;;;;;;7.67;6.50;;;-5.40;99.90;;;;;;5044764;28;20613;-46
2023/01/29 09:15:59;;;;;;;8.90;7.00;;;-5.30;99.90;;;;;;5046062;28;20905;-46
2023/01/29 09:18:28;;;;;;;7.17;5.20;;;-5.40;99.90;;;;;;5043333;28;20476;-45
2023/01/29 09:20:55;;;;;;;10.65;6.30;;;-5.50;99.90;;;;;;5032666;28;20526;-45
2023/01/29 09:23:22;;;;;;;6.53;5.07;;;-5.40;99.90;;;;;;5025277;28;20624;-48
2023/01/29 09:25:49;;;;;;;7.88;5.43;;;-5.30;99.90;;;;;;5039396;28;20481;-47
2023/01/29 09:28:17;;;;;;;10.88;5.95;;;-5.20;99.90;;;;;;5041168;28;20218;-46
2023/01/29 09:30:44;;;;;;;5.15;3.80;;;-4.70;99.90;;;;;;5040177;28;20197;-48
2023/01/29 09:33:11;;;;;;;5.83;4.27;;;-4.30;99.90;;;;;;5044079;28;20647;-50
2023/01/29 09:35:42;;;;;;;5.60;3.93;;;-4.10;99.90;;;;;;5043972;28;20469;-47
2023/01/29 09:38:09;;;;;;;3.90;3.60;;;-4.00;99.90;;;;;;5041752;28;20445;-47
2023/01/29 09:40:43;;;;;;;10.10;7.23;;;-4.10;99.90;;;;;;5035561;28;20963;-46
2023/01/29 09:43:18;;;;;;;21.35;13.65;;;-4.10;99.90;;;;;;5043562;28;20549;-48
2023/01/29 09:45:54;;;;;;;16.23;8.67;;;-4.20;99.90;;;;;;5037969;28;20302;-47
2023/01/29 09:48:23;;;;;;;6.57;5.23;;;-4.10;99.90;;;;;;5036722;28;20449;-48
2023/01/29 09:50:55;;;;;;;6.47;5.33;;;-4.30;99.90;;;;;;5039900;28;20460;-46
2023/01/29 09:53:28;;;;;;;6.13;4.70;;;-4.40;99.90;;;;;;5047570;28;20455;-46
2023/01/29 09:56:00;;;;;;;9.30;5.50;;;-4.20;99.90;;;;;;5039601;28;20666;-47
2023/01/29 09:58:31;;;;;;;8.03;4.10;;;-4.00;99.90;;;;;;5047996;28;20453;-47
2023/01/29 10:01:10;;;;;;;6.20;5.60;;;-3.70;99.90;;;;;;5047274;28;20526;-47
2023/01/29 10:04:04;;;;;;;3.63;3.13;;;-3.60;99.90;;;;;;5047419;28;20545;-47
2023/01/29 10:06:51;;;;;;;4.00;3.57;;;-4.10;99.90;;;;;;5047902;28;20537;-46
2023/01/29 10:09:39;;;;;;;17.87;8.90;;;-4.20;99.90;;;;;;5047592;28;20550;-48
2023/01/29 10:12:19;;;;;;;24.23;12.23;;;-4.20;99.90;;;;;;5048820;28;20945;-46
2023/01/29 10:14:57;;;;;;;55.50;24.45;;;-4.30;99.90;;;;;;5047466;28;20286;-48
2023/01/29 10:17:41;;;;;;;50.00;21.50;;;-4.00;99.90;;;;;;5044368;28;20356;-48
2023/01/29 10:20:47;;;;;;;24.90;12.27;;;-3.60;99.90;;;;;;5049039;28;20946;-47
2023/01/29 10:23:24;;;;;;;15.73;6.93;;;-3.10;99.90;;;;;;5037045;28;20443;-44
2023/01/29 10:25:51;;;;;;;5.97;4.40;;;-2.90;99.90;;;;;;5034727;28;20530;-46
2023/01/29 10:28:21;;;;;;;8.10;5.23;;;-3.10;99.90;;;;;;5037865;28;20889;-47
2023/01/29 10:30:54;;;;;;;4.27;3.90;;;-3.00;99.90;;;;;;5038885;28;20480;-47
2023/01/29 10:33:28;;;;;;;5.60;3.60;;;-2.90;99.90;;;;;;5038331;28;20539;-48
2023/01/29 10:36:00;;;;;;;7.40;6.70;;;-2.70;99.90;;;;;;5047088;28;20551;-49
2023/01/29 10:38:44;;;;;;;4.13;3.60;;;-2.30;99.90;;;;;;5048343;28;20480;-48
2023/01/29 10:41:30;;;;;;;2.67;2.30;;;-2.30;99.90;;;;;;5048346;28;21034;-48
2023/01/29 10:44:11;;;;;;;3.23;2.17;;;-2.20;99.90;;;;;;5048707;28;20441;-49
2023/01/29 10:46:53;;;;;;;4.23;2.60;;;-1.80;99.90;;;;;;5047692;28;20552;-47
2023/01/29 10:49:32;;;;;;;3.37;2.50;;;-1.60;99.90;;;;;;5048258;28;20539;-49
2023/01/29 10:52:17;;;;;;;3.00;2.70;;;-1.60;99.90;;;;;;5048011;28;20567;-46
2023/01/29 10:55:02;;;;;;;2.90;2.30;;;-1.60;99.90;;;;;;5047154;28;20907;-49
2023/01/29 10:57:46;;;;;;;4.10;2.87;;;-1.60;99.90;;;;;;5039768;28;20477;-47
2023/01/29 11:00:20;;;;;;;3.33;3.00;;;-1.50;99.90;;;;;;5046905;28;20880;-46
2023/01/29 11:02:49;;;;;;;4.20;3.10;;;-1.40;99.90;;;;;;5046751;28;20494;-48
2023/01/29 11:05:23;;;;;;;7.63;3.90;;;-1.40;99.90;;;;;;5046094;28;20557;-47
2023/01/29 11:08:01;;;;;;;6.47;3.50;;;-1.10;99.90;;;;;;5046735;22;20582;-49
2023/01/29 11:10:37;;;;;;;3.47;3.17;;;-1.10;99.90;;;;;;5026495;28;20641;-49
2023/01/29 11:13:05;;;;;;;4.03;3.20;;;-1.10;99.90;;;;;;5026872;28;20898;-49
2023/01/29 11:15:33;;;;;;;4.40;3.57;;;-1.00;99.90;;;;;;5027245;28;20530;-50
2023/01/29 11:18:09;;;;;;;5.47;3.17;;;-0.90;99.90;;;;;;5026400;28;20468;-50
2023/01/29 11:20:36;;;;;;;4.80;4.33;;;-0.90;99.90;;;;;;5007888;28;20483;-50
2023/01/29 11:23:03;;;;;;;4.70;3.97;;;-1.00;99.90;;;;;;5006917;28;20911;-49
2023/01/29 11:25:32;;;;;;;4.20;3.80;;;-1.00;99.90;;;;;;5020091;28;20532;-52
2023/01/29 11:28:01;;;;;;;5.17;3.33;;;-1.00;99.90;;;;;;5026785;28;20481;-51
2023/01/29 11:30:30;;;;;;;3.83;3.40;;;-0.80;99.90;;;;;;5026185;28;20453;-52
2023/01/29 11:33:07;;;;;;;5.50;3.67;;;-0.60;99.90;;;;;;5026058;28;20529;-50
2023/01/29 11:35:35;;;;;;;6.33;4.83;;;-0.60;99.90;;;;;;5025166;28;20865;-50
2023/01/29 11:38:18;;;;;;;8.50;5.50;;;-0.50;99.90;;;;;;5026220;28;20497;-49
2023/01/29 11:40:47;;;;;;;7.17;5.27;;;-0.50;99.90;;;;;;5026547;28;20478;-50
2023/01/29 11:43:39;;;;;;;5.40;4.70;;;-0.40;99.90;;;;;;5023268;28;20454;-54
2023/01/29 11:46:11;;;;;;;5.50;4.37;;;-0.40;99.90;;;;;;5018071;28;20827;-49
2023/01/29 11:48:43;;;;;;;5.53;4.33;;;-0.40;99.90;;;;;;5026552;28;20537;-51
2023/01/29 11:51:13;;;;;;;5.30;4.70;;;-0.30;99.90;;;;;;5046267;28;20517;-50
2023/01/29 11:53:42;;;;;;;13.97;7.80;;;-0.30;99.90;;;;;;5041008;28;20442;-52
2023/01/29 11:56:34;;;;;;;9.57;6.70;;;-0.20;99.90;;;;;;5026707;28;20593;-50
2023/01/29 11:59:03;;;;;;;9.43;6.43;;;-0.10;99.90;;;;;;5021997;28;20525;-50
2023/01/29 12:01:36;;;;;;;7.70;6.10;;;-0.10;99.90;;;;;;5026791;28;20450;-52
2023/01/29 12:04:04;;;;;;;5.50;4.43;;;0.00;99.90;;;;;;5023394;28;20450;-49
2023/01/29 12:06:35;;;;;;;5.87;5.27;;;0.10;99.90;;;;;;5032836;28;20557;-50
2023/01/29 12:09:10;;;;;;;11.87;5.10;;;0.00;99.90;;;;;;5025926;28;20445;-49
2023/01/29 12:11:38;;;;;;;6.40;5.30;;;0.10;99.90;;;;;;5026364;28;20478;-51
2023/01/29 12:14:26;;;;;;;8.17;5.10;;;0.10;99.90;;;;;;5025266;28;20539;-52
2023/01/29 12:16:57;;;;;;;6.53;4.73;;;0.00;99.90;;;;;;5025229;28;21053;-51
2023/01/29 12:19:27;;;;;;;5.97;4.53;;;0.10;99.90;;;;;;5005435;28;20470;-52
2023/01/29 12:22:00;;;;;;;4.97;4.00;;;0.20;99.90;;;;;;5006417;28;20447;-50
2023/01/29 12:24:35;;;;;;;5.00;4.50;;;0.30;99.90;;;;;;5009342;28;20958;-51
2023/01/29 12:27:11;;;;;;;6.00;4.03;;;0.30;99.90;;;;;;5025996;28;20549;-50
2023/01/29 12:29:45;;;;;;;5.50;4.40;;;0.40;99.90;;;;;;5025940;28;21386;-50
2023/01/29 12:32:27;;;;;;;5.37;4.20;;;0.40;99.90;;;;;;5026762;28;20514;-49
2023/01/29 12:35:01;;;;;;;4.87;3.73;;;0.50;99.90;;;;;;5025085;28;20548;-52
2023/01/29 12:37:37;;;;;;;4.60;3.83;;;0.30;99.90;;;;;;5025970;28;20899;-51
2023/01/29 12:40:12;;;;;;;5.27;3.40;;;0.20;99.90;;;;;;5026061;28;20480;-50
2023/01/29 12:42:43;;;;;;;5.87;4.50;;;0.20;99.90;;;;;;5025741;28;20545;-50
2023/01/29 12:45:16;;;;;;;5.00;4.00;;;0.30;99.90;;;;;;5024236;28;20891;-50
2023/01/29 12:47:47;;;;;;;4.17;3.47;;;0.30;99.90;;;;;;5024875;28;20480;-52
2023/01/29 12:50:19;;;;;;;4.87;3.73;;;0.30;99.90;;;;;;5025101;28;20529;-55
2023/01/29 12:52:50;;;;;;;5.10;3.97;;;0.50;99.90;;;;;;5024758;28;20455;-52
2023/01/29 12:55:20;;;;;;;5.00;4.47;;;0.60;99.90;;;;;;5027611;28;20461;-50
2023/01/29 12:57:56;;;;;;;4.40;3.20;;;0.50;99.90;;;;;;5046384;28;20548;-52
2023/01/29 13:00:25;;;;;;;5.53;3.90;;;0.00;99.90;;;;;;5045798;28;20576;-50
2023/01/29 13:02:59;;;;;;;5.47;4.63;;;0.00;99.90;;;;;;5045891;28;20532;-51
2023/01/29 13:05:28;;;;;;;5.90;4.63;;;0.00;99.90;;;;;;5045633;28;20525;-53
2023/01/29 13:08:01;;;;;;;6.07;4.27;;;0.00;99.90;;;;;;5025103;28;20475;-50
2023/01/29 13:10:32;;;;;;;4.07;3.67;;;0.10;99.90;;;;;;5025806;28;20543;-49
2023/01/29 13:13:05;;;;;;;6.87;5.10;;;0.30;99.90;;;;;;5025374;28;20520;-51
2023/01/29 13:15:36;;;;;;;5.40;4.07;;;0.50;99.90;;;;;;5027038;28;20533;-51
2023/01/29 13:18:30;;;;;;;6.30;4.30;;;0.70;99.90;;;;;;5029183;28;20549;-51
2023/01/29 13:20:58;;;;;;;5.37;4.40;;;0.70;99.90;;;;;;5030402;28;20892;-50
2023/01/29 13:23:32;;;;;;;4.83;4.30;;;0.70;99.90;;;;;;5028419;28;20541;-51
2023/01/29 13:25:59;;;;;;;4.47;4.07;;;0.80;99.90;;;;;;5028484;28;20861;-52
2023/01/29 13:28:28;;;;;;;4.70;4.30;;;0.90;99.90;;;;;;5027632;28;20497;-50
2023/01/29 13:31:26;;;;;;;7.70;4.23;;;0.90;99.90;;;;;;5029960;28;20517;-49
2023/01/29 13:33:55;;;;;;;9.23;6.50;;;1.00;99.90;;;;;;5028976;28;21054;-50
2023/01/29 13:36:26;;;;;;;6.47;5.30;;;1.00;99.90;;;;;;5028898;28;20971;-51
2023/01/29 13:38:59;;;;;;;6.23;5.63;;;1.00;99.90;;;;;;5030364;28;20492;-50
2023/01/29 13:41:38;;;;;;;6.07;5.47;;;1.10;99.90;;;;;;5028886;28;20914;-51